createdAt,value
2023-01-30T00:02:26.126Z,5.94
2023-01-30T00:07:29.195Z,6.00
2023-01-30T00:12:32.111Z,6.01
2023-01-30T00:17:36.704Z,6.08
2023-01-30T00:22:44.109Z,6.00
2023-01-30T00:27:49.741Z,6.15
2023-01-30T00:32:57.090Z,6.11
2023-01-30T00:38:00.962Z,6.22
2023-01-30T00:43:21.997Z,6.21
2023-01-30T00:48:26.608Z,6.33
2023-01-30T00:53:29.596Z,6.34
2023-01-30T00:58:33.776Z,6.38
2023-01-30T01:03:38.298Z,6.37
2023-01-30T01:08:41.445Z,6.37
2023-01-30T01:13:44.423Z,6.41
2023-01-30T01:18:49.252Z,6.42
2023-01-30T01:23:52.757Z,6.45
2023-01-30T01:28:56.719Z,6.52
2023-01-30T01:34:01.105Z,6.55
2023-01-30T01:39:04.652Z,6.58
2023-01-30T01:44:09.315Z,6.61
2023-01-30T01:49:18.314Z,6.64
2023-01-30T01:54:28.327Z,6.64
2023-01-30T01:59:38.510Z,6.59
2023-01-30T02:05:03.547Z,6.59
2023-01-30T02:10:09.789Z,6.66
2023-01-30T02:15:13.002Z,6.67
2023-01-30T02:20:28.410Z,6.67
2023-01-30T02:26:09.847Z,6.57
2023-01-30T02:31:25.784Z,6.46
2023-01-30T02:36:41.405Z,6.40
2023-01-30T02:41:53.062Z,6.35
2023-01-30T02:47:02.872Z,6.32
2023-01-30T02:52:09.035Z,6.31
2023-01-30T02:57:20.912Z,6.30
2023-01-30T03:02:44.751Z,6.28
2023-01-30T03:07:56.737Z,6.24
2023-01-30T03:13:06.947Z,6.19
2023-01-30T03:18:12.024Z,6.26
2023-01-30T03:23:15.418Z,6.26
2023-01-30T03:28:21.769Z,6.28
2023-01-30T03:33:27.183Z,6.24
2023-01-30T03:38:30.297Z,6.24
2023-01-30T03:43:33.661Z,6.23
2023-01-30T03:48:40.470Z,6.22
2023-01-30T03:53:43.614Z,6.25
2023-01-30T03:58:48.112Z,6.28
2023-01-30T04:03:55.645Z,6.29
2023-01-30T04:08:58.769Z,6.30
2023-01-30T04:14:11.896Z,6.30
2023-01-30T04:19:29.707Z,6.31
2023-01-30T04:24:32.858Z,6.35
2023-01-30T04:29:35.891Z,6.39
2023-01-30T04:34:45.201Z,6.46
2023-01-30T04:39:48.289Z,6.49
2023-01-30T04:44:51.364Z,6.58
2023-01-30T04:49:58.204Z,6.64
2023-01-30T04:55:01.956Z,6.73
2023-01-30T05:00:06.195Z,6.70
2023-01-30T05:05:12.769Z,6.63
2023-01-30T05:10:16.046Z,6.72
2023-01-30T05:15:19.618Z,6.84
2023-01-30T05:20:24.444Z,6.92
2023-01-30T05:25:27.630Z,6.95
2023-01-30T05:30:30.705Z,7.00
2023-01-30T05:35:35.179Z,7.08
2023-01-30T05:40:38.177Z,6.94
2023-01-30T05:45:41.179Z,6.94
2023-01-30T05:50:45.651Z,6.88
2023-01-30T05:55:55.472Z,6.84
2023-01-30T06:01:01.904Z,6.73
2023-01-30T06:06:07.619Z,6.68
2023-01-30T06:11:12.853Z,6.57
2023-01-30T06:16:18.267Z,6.47
2023-01-30T06:21:22.875Z,6.42
2023-01-30T06:26:25.916Z,6.32
2023-01-30T06:31:29.013Z,6.26
2023-01-30T06:36:33.543Z,6.15
2023-01-30T06:41:36.561Z,6.19
2023-01-30T06:46:39.743Z,6.01
2023-01-30T06:51:44.118Z,5.97
2023-01-30T06:56:47.434Z,5.91
2023-01-30T07:01:50.467Z,5.83
2023-01-30T07:06:55.083Z,5.80
2023-01-30T07:11:58.065Z,5.70
2023-01-30T07:17:01.086Z,5.62
2023-01-30T07:22:05.633Z,5.60
2023-01-30T07:27:09.135Z,5.58
2023-01-30T07:32:16.087Z,5.57
2023-01-30T07:37:20.434Z,5.51
2023-01-30T07:42:23.533Z,5.49
2023-01-30T07:47:28.615Z,5.47
2023-01-30T07:52:32.969Z,5.54
2023-01-30T07:57:35.976Z,5.55
2023-01-30T08:02:38.997Z,5.59
2023-01-30T08:07:43.550Z,5.61
2023-01-30T08:12:46.708Z,5.74
2023-01-30T08:17:54.959Z,5.72
2023-01-30T08:23:00.692Z,5.76
2023-01-30T08:28:04.627Z,5.82
2023-01-30T08:33:07.751Z,5.87
2023-01-30T08:38:12.180Z,6.06
2023-01-30T08:43:15.301Z,6.11
2023-01-30T08:48:18.220Z,6.09
2023-01-30T08:53:23.063Z,6.12
2023-01-30T08:58:26.330Z,6.19
2023-01-30T09:03:29.561Z,6.24
2023-01-30T09:08:33.986Z,6.34
2023-01-30T09:13:38.833Z,6.56
2023-01-30T09:18:42.271Z,6.70
2023-01-30T09:23:46.649Z,6.73
2023-01-30T09:28:49.692Z,6.99
2023-01-30T09:33:52.692Z,7.19
2023-01-30T09:38:57.126Z,7.33
2023-01-30T09:44:15.374Z,7.50
2023-01-30T09:49:31.492Z,7.52
2023-01-30T09:54:39.947Z,7.51
2023-01-30T09:59:52.830Z,7.36
2023-01-30T10:05:01.694Z,7.58
2023-01-30T10:10:12.447Z,7.71
2023-01-30T10:15:30.397Z,7.88
2023-01-30T10:20:43.595Z,7.86
2023-01-30T10:25:52.235Z,7.84
2023-01-30T10:31:07.215Z,7.76
2023-01-30T10:36:12.770Z,7.80
2023-01-30T10:41:26.485Z,7.75
2023-01-30T10:46:44.612Z,7.79
2023-01-30T10:51:59.508Z,7.74
2023-01-30T10:57:14.054Z,7.71
2023-01-30T11:02:25.530Z,7.84
2023-01-30T11:07:32.325Z,7.99
2023-01-30T11:12:36.629Z,8.01
2023-01-30T11:17:43.051Z,8.15
2023-01-30T11:22:51.955Z,8.05
2023-01-30T11:28:01.009Z,7.96
2023-01-30T11:33:12.416Z,8.01
2023-01-30T11:38:24.162Z,7.93
2023-01-30T11:43:29.829Z,7.98
2023-01-30T11:49:09.273Z,7.96
2023-01-30T11:54:02.038Z,7.80
2023-01-30T11:59:08.980Z,7.53
2023-01-30T12:04:13.971Z,7.87
2023-01-30T12:09:33.353Z,7.96
2023-01-30T12:14:43.478Z,8.22
2023-01-30T12:19:58.636Z,8.26
2023-01-30T12:25:04.527Z,8.32
2023-01-30T12:30:22.659Z,8.25
2023-01-30T12:35:38.274Z,8.41
2023-01-30T12:40:52.179Z,8.39
2023-01-30T12:46:06.945Z,8.17
2023-01-30T12:51:16.778Z,8.50
2023-01-30T12:56:46.936Z,8.46
2023-01-30T13:02:11.595Z,8.51
2023-01-30T13:07:23.475Z,8.60
2023-01-30T13:12:36.508Z,8.51
2023-01-30T13:17:50.372Z,8.41
2023-01-30T13:23:02.183Z,8.31
2023-01-30T13:28:12.591Z,8.41
2023-01-30T13:33:21.949Z,8.63
2023-01-30T13:38:28.237Z,8.71
2023-01-30T13:43:36.543Z,8.57
2023-01-30T13:48:51.902Z,8.43
2023-01-30T13:54:03.613Z,8.59
2023-01-30T13:59:15.727Z,8.59
2023-01-30T14:04:54.427Z,8.70
2023-01-30T14:10:12.648Z,8.78
2023-01-30T14:15:31.825Z,8.78
2023-01-30T14:20:37.769Z,8.63
2023-01-30T14:25:49.745Z,8.57
2023-01-30T14:30:54.424Z,8.37
2023-01-30T14:36:27.115Z,8.03
2023-01-30T14:41:31.551Z,7.97
2023-01-30T14:46:54.240Z,7.95
2023-01-30T14:51:59.870Z,8.11
2023-01-30T14:57:06.801Z,8.20
2023-01-30T15:02:22.820Z,8.31
2023-01-30T15:07:28.655Z,8.50
2023-01-30T15:12:53.971Z,8.60
2023-01-30T15:18:31.410Z,8.47
2023-01-30T15:24:08.033Z,8.32
2023-01-30T15:29:32.370Z,8.21
2023-01-30T15:34:35.610Z,8.01
2023-01-30T15:39:38.593Z,7.93
2023-01-30T15:44:55.074Z,7.78
2023-01-30T15:50:03.612Z,7.61
2023-01-30T15:55:09.672Z,7.34
2023-01-30T16:00:26.615Z,7.21
2023-01-30T16:05:30.603Z,7.13
2023-01-30T16:10:33.634Z,7.11
2023-01-30T16:15:43.192Z,6.99
2023-01-30T16:21:00.750Z,6.85
2023-01-30T16:26:08.960Z,6.72
2023-01-30T16:31:13.609Z,6.54
2023-01-30T16:36:38.954Z,6.50
2023-01-30T16:41:43.248Z,6.45
2023-01-30T16:46:50.355Z,6.51
2023-01-30T16:52:02.330Z,6.57
2023-01-30T16:57:06.182Z,6.58
2023-01-30T17:02:26.659Z,6.66
2023-01-30T17:07:35.313Z,6.65
2023-01-30T17:12:48.381Z,6.62
2023-01-30T17:17:52.833Z,6.55
2023-01-30T17:23:02.202Z,6.58
2023-01-30T17:28:07.013Z,6.62
2023-01-30T17:33:12.114Z,6.65
2023-01-30T17:38:15.254Z,6.39
2023-01-30T17:43:18.205Z,6.21
2023-01-30T17:48:22.798Z,6.14
2023-01-30T17:53:25.837Z,6.25
2023-01-30T17:58:28.866Z,6.21
2023-01-30T18:03:33.208Z,6.19
2023-01-30T18:08:36.192Z,6.22
2023-01-30T18:13:40.577Z,5.98
2023-01-30T18:18:45.201Z,5.97
2023-01-30T18:23:48.160Z,5.86
2023-01-30T18:28:53.223Z,5.71
2023-01-30T18:33:58.275Z,5.67
2023-01-30T18:39:01.385Z,5.63
2023-01-30T18:44:06.765Z,5.58
2023-01-30T18:49:11.456Z,5.48
2023-01-30T18:54:14.833Z,5.57
2023-01-30T18:59:17.928Z,5.76
2023-01-30T19:04:22.292Z,5.57
2023-01-30T19:09:26.844Z,5.35
2023-01-30T19:14:29.873Z,5.20
2023-01-30T19:19:37.029Z,5.21
2023-01-30T19:24:40.095Z,5.08
2023-01-30T19:29:43.514Z,4.95
2023-01-30T19:34:50.034Z,5.00
2023-01-30T19:39:53.996Z,4.99
2023-01-30T19:44:57.003Z,5.02
2023-01-30T19:50:01.577Z,4.92
2023-01-30T19:55:05.440Z,4.85
2023-01-30T20:00:09.738Z,4.73
2023-01-30T20:05:14.302Z,4.65
2023-01-30T20:10:18.229Z,4.58
2023-01-30T20:15:21.487Z,4.54
2023-01-30T20:20:25.854Z,4.48
2023-01-30T20:25:28.829Z,4.39
2023-01-30T20:30:31.771Z,4.40
2023-01-30T20:35:36.118Z,4.55
2023-01-30T20:40:40.117Z,4.64
2023-01-30T20:45:43.225Z,4.68
2023-01-30T20:50:47.527Z,4.73
2023-01-30T20:55:50.525Z,4.67
2023-01-30T21:00:53.756Z,4.61
2023-01-30T21:05:58.997Z,4.53
2023-01-30T21:11:07.061Z,4.54
2023-01-30T21:16:13.345Z,4.50
2023-01-30T21:21:19.911Z,4.39
2023-01-30T21:26:25.126Z,4.39
2023-01-30T21:31:30.547Z,4.36
2023-01-30T21:36:35.209Z,4.24
2023-01-30T21:41:58.703Z,4.23
2023-01-30T21:47:01.907Z,4.23
2023-01-30T21:52:06.647Z,4.09
2023-01-30T21:57:09.585Z,4.07
2023-01-30T22:02:12.696Z,4.08
2023-01-30T22:07:18.204Z,3.97
2023-01-30T22:12:21.268Z,3.97
2023-01-30T22:17:24.445Z,3.87
2023-01-30T22:22:32.594Z,3.89
2023-01-30T22:27:36.131Z,3.90
2023-01-30T22:32:39.652Z,3.83
2023-01-30T22:37:44.048Z,3.85
2023-01-30T22:42:48.533Z,3.76
2023-01-30T22:47:51.561Z,3.64
2023-01-30T22:52:57.087Z,3.53
2023-01-30T22:58:00.066Z,3.38
2023-01-30T23:03:03.139Z,3.29
2023-01-30T23:08:07.576Z,3.24
2023-01-30T23:13:15.342Z,3.18
2023-01-30T23:18:35.893Z,3.07
2023-01-30T23:23:40.448Z,2.97
2023-01-30T23:28:43.460Z,2.93
2023-01-30T23:33:46.793Z,2.87
2023-01-30T23:38:51.759Z,2.69
2023-01-30T23:43:55.355Z,2.73
2023-01-30T23:49:00.521Z,2.66
2023-01-30T23:54:06.198Z,2.60
2023-01-30T23:59:09.600Z,2.57
